Historique des mesures à Cassis (13260), France
Quotidien Résumé Octobre 12, 2018 Unités:  US    Métrique   Métrique/US
« Précédent (Jour)
Suivant (Jour) »
Quotidien Hebdomadaire Mensuel Annuel Période au choix
  Maximum: Minimum: Moyenne:
Température: 32 °F 64 °F 66.4 °F
Point de rosée: 32 °F 58.1 °F 59.7 °F
Humidité: Humidity % 73 % 75 %
Vitesse du vent: WindSpeedKMH mph 0.0 mph 1.4 mph
Rafales: WindSpeedGustKMH mph - -
Vent:- - SSE
Pression: 0 in 30 in -
Précipitations: 0 in    
Historical Graphs
 
 
Mesures pour : Octobre 12, 2018
Heure Temperature Point de rosée Pression Vent Vitesse du vent Rafales Humidité Pluie (par heure) Conditions
32 °F 32 °F 0 in Calm     Humidity % 0 in SoftwareType W/m2
00:10 66.4 °F 59.7 °F 30 in ESE 4.0 mph 4.0 mph 79 % 0 in open2300-1.11 W/m2
01:10 66 °F 59.7 °F 30 in WNW 1.8 mph 5.0 mph 80 % 0 in open2300-1.11 W/m2
02:10 64.9 °F 58.6 °F 30 in Calm   1.8 mph 80 % 0 in open2300-1.11 W/m2
03:10 64.2 °F 58.3 °F 30 in Calm   2.9 mph 81 % 0 in open2300-1.11 W/m2
04:10 64.4 °F 58.5 °F 30 in Calm   1.4 mph 81 % 0 in open2300-1.11 W/m2
05:10 64.4 °F 58.5 °F 30.1 in NW 2.5 mph 2.5 mph 81 % 0 in open2300-1.11 W/m2
06:10 64 °F 58.5 °F 30.1 in NNE 4.3 mph 4.3 mph 82 % 0 in open2300-1.11 W/m2
07:10 64.2 °F 58.6 °F 30.1 in Calm   4.0 mph 82 % 0 in open2300-1.11 W/m2
08:10 64.6 °F 59.4 °F 30.1 in Calm   2.9 mph 83 % 0 in open2300-1.11 W/m2
09:10 65.8 °F 59.9 °F 30.1 in Calm   2.5 mph 81 % 0 in open2300-1.11 W/m2
10:10 67.3 °F 61.3 °F 30.1 in Calm     81 % 0 in open2300-1.11 W/m2
11:10 69.3 °F 62.4 °F 30.1 in South 2.5 mph 2.5 mph 79 % 0 in open2300-1.11 W/m2
12:10 71.2 °F 63.7 °F 30.2 in SE 4.7 mph 4.7 mph 77 % 0 in open2300-1.11 W/m2
13:10 72 °F 64 °F 30.1 in NNE 4.0 mph 6.1 mph 76 % 0 in open2300-1.11 W/m2
14:10 73.6 °F 64.8 °F 30.1 in Calm   5.0 mph 74 % 0 in open2300-1.11 W/m2
15:10 73.6 °F 64.8 °F 30.1 in Calm   5.0 mph 74 % 0 in open2300-1.11 W/m2
16:10 73.6 °F 64.4 °F 30.1 in SSE 11.2 mph 11.2 mph 73 % 0 in open2300-1.11 W/m2
17:10 73 °F 63.9 °F 30.1 in Calm   3.2 mph 73 % 0 in open2300-1.11 W/m2
18:10 70.9 °F 62.1 °F 30.1 in Calm     74 % 0 in open2300-1.11 W/m2
19:10 68.9 °F 61 °F 30.1 in Calm     76 % 0 in open2300-1.11 W/m2
20:10 67.3 °F 59.9 °F 30.1 in Calm     77 % 0 in open2300-1.11 W/m2
21:10 66.9 °F 59.9 °F 30.1 in Calm     78 % 0 in open2300-1.11 W/m2
22:10 66.9 °F 60.3 °F 30.1 in Calm     79 % 0 in open2300-1.11 W/m2
23:10 65.1 °F 58.1 °F 30.1 in Calm   2.2 mph 78 % 0 in open2300-1.11 W/m2
Observations météo à CASSIS
WU-History script by Weather Underground - 1 mb